createdAt,value
2023-04-21T00:01:39.572Z,97.03
2023-04-21T00:04:08.435Z,96.67
2023-04-21T00:06:36.909Z,97.73
2023-04-21T00:09:05.550Z,97.39
2023-04-21T00:11:33.402Z,97.81
2023-04-21T00:14:01.254Z,97.04
2023-04-21T00:16:29.282Z,97.30
2023-04-21T00:18:57.094Z,98.52
2023-04-21T00:21:25.409Z,98.04
2023-04-21T00:23:53.296Z,97.76
2023-04-21T00:26:21.302Z,97.81
2023-04-21T00:28:49.523Z,97.55
2023-04-21T00:31:17.630Z,97.23
2023-04-21T00:33:45.777Z,97.38
2023-04-21T00:36:13.762Z,97.11
2023-04-21T00:38:41.576Z,97.08
2023-04-21T00:41:09.949Z,97.73
2023-04-21T00:44:02.849Z,97.31
2023-04-21T00:46:33.651Z,97.36
2023-04-21T00:49:05.976Z,97.87
2023-04-21T00:51:35.806Z,97.39
2023-04-21T00:54:08.236Z,97.43
2023-04-21T00:56:37.017Z,97.37
2023-04-21T00:59:05.040Z,97.60
2023-04-21T01:01:34.500Z,97.10
2023-04-21T01:04:04.801Z,97.78
2023-04-21T01:06:36.775Z,97.43
2023-04-21T01:09:05.390Z,97.81
2023-04-21T01:11:33.529Z,97.61
2023-04-21T01:14:01.607Z,97.43
2023-04-21T01:16:29.777Z,97.23
2023-04-21T01:18:59.241Z,97.31
2023-04-21T01:21:29.116Z,97.84
2023-04-21T01:23:57.632Z,97.26
2023-04-21T01:26:25.576Z,97.35
2023-04-21T01:28:57.343Z,96.92
2023-04-21T01:31:27.393Z,97.23
2023-04-21T01:33:55.716Z,97.26
2023-04-21T01:36:23.621Z,97.51
2023-04-21T01:38:53.738Z,96.99
2023-04-21T01:41:23.648Z,96.80
2023-04-21T01:43:51.570Z,96.60
2023-04-21T01:46:21.074Z,96.14
2023-04-21T01:48:49.134Z,96.37
2023-04-21T01:51:17.057Z,96.73
2023-04-21T01:53:45.252Z,96.37
2023-04-21T01:56:15.968Z,96.28
2023-04-21T01:58:43.774Z,97.06
2023-04-21T02:01:11.705Z,97.67
2023-04-21T02:03:40.708Z,96.87
2023-04-21T02:06:09.533Z,96.80
2023-04-21T02:08:37.408Z,97.19
2023-04-21T02:11:05.336Z,96.68
2023-04-21T02:13:33.176Z,97.28
2023-04-21T02:16:12.704Z,97.70
2023-04-21T02:18:41.704Z,97.52
2023-04-21T02:21:09.555Z,97.27
2023-04-21T02:23:37.477Z,97.94
2023-04-21T02:26:05.513Z,97.82
2023-04-21T02:28:33.553Z,98.57
2023-04-21T02:31:01.494Z,97.74
2023-04-21T02:33:29.940Z,98.91
2023-04-21T02:35:57.855Z,98.88
2023-04-21T02:38:25.672Z,98.96
2023-04-21T02:40:53.643Z,98.50
2023-04-21T02:43:21.643Z,98.77
2023-04-21T02:45:51.179Z,99.08
2023-04-21T02:48:28.483Z,99.67
2023-04-21T02:50:56.410Z,100.00
2023-04-21T02:53:24.297Z,99.96
2023-04-21T02:55:52.966Z,100.00
2023-04-21T02:58:20.849Z,100.00
2023-04-21T03:00:48.865Z,100.00
2023-04-21T03:03:17.116Z,100.00
2023-04-21T03:05:45.278Z,100.00
2023-04-21T03:08:13.464Z,100.00
2023-04-21T03:10:41.537Z,100.00
2023-04-21T03:13:09.570Z,100.00
2023-04-21T03:15:37.488Z,100.00
2023-04-21T03:18:05.958Z,100.00
2023-04-21T03:20:34.102Z,100.00
2023-04-21T03:23:01.979Z,100.00
2023-04-21T03:25:29.836Z,100.00
2023-04-21T03:27:57.811Z,100.00
2023-04-21T03:30:26.788Z,100.00
2023-04-21T03:32:58.984Z,100.00
2023-04-21T03:35:27.673Z,100.00
2023-04-21T03:37:55.623Z,100.00
2023-04-21T03:40:23.618Z,100.00
2023-04-21T03:42:51.706Z,100.00
2023-04-21T03:45:22.618Z,100.00
2023-04-21T03:47:55.763Z,100.00
2023-04-21T03:50:23.939Z,100.00
2023-04-21T03:52:51.777Z,100.00
2023-04-21T03:55:19.754Z,100.00
2023-04-21T03:57:47.662Z,100.00
2023-04-21T04:00:16.170Z,100.00
2023-04-21T04:02:44.204Z,100.00
2023-04-21T04:05:12.578Z,100.00
2023-04-21T04:07:40.816Z,100.00
2023-04-21T04:10:08.823Z,100.00
2023-04-21T04:12:36.813Z,100.00
2023-04-21T04:15:05.062Z,100.00
2023-04-21T04:17:32.976Z,100.00
2023-04-21T04:20:01.953Z,100.00
2023-04-21T04:22:29.762Z,100.00
2023-04-21T04:24:59.801Z,100.00
2023-04-21T04:27:28.651Z,100.00
2023-04-21T04:29:57.743Z,100.00
2023-04-21T04:32:28.759Z,100.00
2023-04-21T04:34:57.115Z,100.00
2023-04-21T04:37:25.596Z,100.00
2023-04-21T04:39:54.439Z,100.00
2023-04-21T04:42:22.290Z,100.00
2023-04-21T04:44:54.132Z,100.00
2023-04-21T04:47:22.041Z,100.00
2023-04-21T04:49:49.998Z,100.00
2023-04-21T04:52:17.910Z,100.00
2023-04-21T04:54:45.864Z,100.00
2023-04-21T04:57:13.651Z,100.00
2023-04-21T04:59:41.565Z,100.00
2023-04-21T05:02:10.689Z,100.00
2023-04-21T05:04:39.519Z,100.00
2023-04-21T05:07:07.978Z,100.00
2023-04-21T05:09:35.987Z,100.00
2023-04-21T05:12:04.045Z,100.00
2023-04-21T05:14:31.934Z,100.00
2023-04-21T05:17:00.030Z,100.00
2023-04-21T05:19:28.208Z,100.00
2023-04-21T05:22:02.722Z,100.00
2023-04-21T05:24:30.609Z,100.00
2023-04-21T05:26:58.517Z,100.00
2023-04-21T05:29:26.467Z,100.00
2023-04-21T05:31:54.389Z,100.00
2023-04-21T05:34:22.323Z,100.00
2023-04-21T05:36:50.326Z,100.00
2023-04-21T05:39:18.549Z,100.00
2023-04-21T05:41:46.454Z,100.00
2023-04-21T05:44:18.321Z,100.00
2023-04-21T05:46:46.404Z,99.33
2023-04-21T05:49:14.325Z,99.25
2023-04-21T05:51:42.226Z,97.05
2023-04-21T05:54:10.119Z,95.36
2023-04-21T05:56:37.951Z,93.68
2023-04-21T05:59:07.121Z,95.67
2023-04-21T06:01:35.053Z,94.37
2023-04-21T06:04:03.222Z,94.55
2023-04-21T06:06:31.922Z,93.50
2023-04-21T06:09:00.062Z,91.55
2023-04-21T06:11:28.028Z,90.98
2023-04-21T06:13:58.566Z,92.44
2023-04-21T06:16:27.273Z,86.68
2023-04-21T06:18:55.378Z,87.15
2023-04-21T06:21:23.208Z,87.74
2023-04-21T06:23:51.292Z,89.52
2023-04-21T06:26:19.152Z,83.47
2023-04-21T06:28:47.115Z,86.55
2023-04-21T06:31:15.781Z,84.68
2023-04-21T06:33:44.093Z,79.82
2023-04-21T06:36:12.051Z,81.63
2023-04-21T06:38:41.762Z,80.99
2023-04-21T06:41:10.543Z,78.65
2023-04-21T06:43:38.416Z,80.51
2023-04-21T06:46:06.395Z,79.37
2023-04-21T06:48:34.308Z,77.47
2023-04-21T06:51:02.886Z,77.15
2023-04-21T06:53:31.338Z,78.68
2023-04-21T06:55:59.391Z,75.27
2023-04-21T06:58:27.320Z,74.45
2023-04-21T07:00:55.339Z,72.94
2023-04-21T07:03:23.276Z,72.30
2023-04-21T07:05:51.615Z,72.52
2023-04-21T07:08:19.546Z,73.05
2023-04-21T07:10:47.493Z,72.16
2023-04-21T07:13:16.114Z,70.40
2023-04-21T07:15:43.975Z,70.00
2023-04-21T07:18:11.987Z,70.67
2023-04-21T07:20:40.058Z,68.37
2023-04-21T07:23:07.923Z,69.12
2023-04-21T07:25:35.800Z,69.43
2023-04-21T07:28:04.475Z,67.82
2023-04-21T07:30:32.452Z,68.77
2023-04-21T07:33:00.866Z,67.30
2023-04-21T07:35:28.883Z,67.91
2023-04-21T07:37:56.918Z,67.57
2023-04-21T07:40:24.977Z,66.19
2023-04-21T07:42:52.817Z,65.79
2023-04-21T07:45:21.083Z,64.16
2023-04-21T07:47:49.055Z,64.11
2023-04-21T07:50:17.266Z,63.89
2023-04-21T07:52:45.091Z,63.38
2023-04-21T07:55:12.954Z,63.76
2023-04-21T07:57:41.012Z,64.19
2023-04-21T08:00:10.505Z,63.74
2023-04-21T08:02:41.967Z,63.59
2023-04-21T08:05:10.832Z,61.75
2023-04-21T08:07:39.720Z,61.63
2023-04-21T08:10:08.770Z,62.26
2023-04-21T08:12:36.746Z,62.53
2023-04-21T08:15:07.761Z,60.27
2023-04-21T08:17:36.072Z,57.55
2023-04-21T08:20:05.664Z,58.30
2023-04-21T08:22:33.613Z,58.39
2023-04-21T08:25:01.453Z,57.21
2023-04-21T08:27:29.418Z,58.11
2023-04-21T08:29:57.290Z,58.74
2023-04-21T08:32:26.585Z,58.96
2023-04-21T08:34:54.842Z,58.33
2023-04-21T08:37:23.273Z,58.25
2023-04-21T08:39:51.356Z,57.00
2023-04-21T08:42:20.079Z,56.67
2023-04-21T08:44:48.019Z,55.32
2023-04-21T08:47:16.181Z,55.57
2023-04-21T08:49:47.275Z,54.33
2023-04-21T08:52:15.223Z,54.90
2023-04-21T08:54:43.428Z,54.11
2023-04-21T08:57:15.803Z,55.46
2023-04-21T08:59:45.654Z,55.38
2023-04-21T09:02:19.114Z,56.21
2023-04-21T09:04:54.943Z,55.08
2023-04-21T09:07:36.770Z,54.39
2023-04-21T09:10:06.455Z,54.39
2023-04-21T09:12:34.479Z,54.91
2023-04-21T09:15:06.436Z,54.84
2023-04-21T09:17:36.386Z,54.90
2023-04-21T09:20:24.904Z,54.45
2023-04-21T09:22:53.337Z,53.25
2023-04-21T09:25:21.835Z,52.71
2023-04-21T09:27:49.904Z,51.96
2023-04-21T09:30:20.938Z,51.71
2023-04-21T09:32:49.655Z,52.40
2023-04-21T09:35:17.598Z,52.53
2023-04-21T09:37:45.553Z,52.15
2023-04-21T09:40:15.090Z,50.96
2023-04-21T09:42:44.681Z,50.41
2023-04-21T09:47:51.002Z,48.36
2023-04-21T09:50:41.802Z,48.01
2023-04-21T09:53:15.270Z,48.36
2023-04-21T09:55:46.645Z,47.41
2023-04-21T09:58:19.157Z,46.69
2023-04-21T10:00:47.721Z,47.40
2023-04-21T10:03:18.891Z,46.30
2023-04-21T10:05:47.093Z,46.67
2023-04-21T10:08:17.227Z,46.55
2023-04-21T10:10:46.063Z,46.53
2023-04-21T10:13:17.378Z,46.19
2023-04-21T10:15:45.389Z,46.56
2023-04-21T10:18:17.766Z,46.26
2023-04-21T10:20:59.032Z,44.99
2023-04-21T10:23:43.818Z,42.93
2023-04-21T10:26:29.789Z,42.89
2023-04-21T10:29:06.345Z,42.73
2023-04-21T10:31:51.371Z,42.56
2023-04-21T10:34:22.414Z,42.42
2023-04-21T10:36:56.584Z,42.38
2023-04-21T10:39:29.552Z,42.79
2023-04-21T10:42:20.934Z,43.05
2023-04-21T10:45:16.281Z,41.95
2023-04-21T10:47:49.108Z,41.09
2023-04-21T10:50:39.537Z,40.09
2023-04-21T10:53:11.390Z,40.58
2023-04-21T10:55:42.345Z,40.99
2023-04-21T10:58:10.482Z,40.55
2023-04-21T11:00:39.320Z,40.25
2023-04-21T11:03:08.256Z,40.36
2023-04-21T11:05:38.976Z,40.53
2023-04-21T11:08:15.851Z,40.18
2023-04-21T11:10:47.076Z,40.65
2023-04-21T11:13:15.666Z,40.30
2023-04-21T11:15:57.590Z,40.22
2023-04-21T11:18:37.535Z,40.45
2023-04-21T11:21:13.899Z,40.34
2023-04-21T11:23:47.971Z,39.36
2023-04-21T11:26:16.402Z,39.25
2023-04-21T11:28:47.900Z,39.58
2023-04-21T11:31:16.273Z,39.77
2023-04-21T11:33:44.325Z,39.92
2023-04-21T11:36:12.215Z,39.31
2023-04-21T11:38:41.487Z,39.53
2023-04-21T11:41:10.730Z,39.00
2023-04-21T11:43:39.062Z,39.27
2023-04-21T11:46:17.991Z,39.30
2023-04-21T11:48:46.708Z,39.36
2023-04-21T11:51:15.965Z,39.16
2023-04-21T11:53:47.020Z,38.43
2023-04-21T11:56:20.075Z,37.64
2023-04-21T11:58:51.605Z,38.59
2023-04-21T12:01:21.652Z,39.05
2023-04-21T12:03:54.866Z,39.64
2023-04-21T12:06:24.751Z,39.60
2023-04-21T12:09:01.240Z,38.66
2023-04-21T12:11:30.723Z,38.29
2023-04-21T12:13:59.329Z,37.48
2023-04-21T12:16:29.172Z,37.40
2023-04-21T12:18:57.916Z,38.00
2023-04-21T12:21:29.485Z,38.51
2023-04-21T12:23:57.595Z,38.71
2023-04-21T12:26:25.436Z,38.67
2023-04-21T12:28:53.717Z,39.04
2023-04-21T12:31:21.832Z,39.21
2023-04-21T12:33:49.751Z,38.94
2023-04-21T12:36:17.683Z,38.59
2023-04-21T12:38:45.655Z,38.27
2023-04-21T12:41:13.588Z,37.72
2023-04-21T12:43:41.602Z,37.40
2023-04-21T12:46:09.590Z,36.92
2023-04-21T12:48:38.007Z,37.16
2023-04-21T12:51:05.987Z,37.11
2023-04-21T12:53:34.059Z,37.37
2023-04-21T12:56:05.152Z,36.90
2023-04-21T12:58:33.789Z,35.15
2023-04-21T13:01:01.826Z,35.52
2023-04-21T13:03:30.037Z,35.81
2023-04-21T13:05:58.190Z,36.31
2023-04-21T13:08:26.363Z,36.93
2023-04-21T13:10:55.432Z,34.64
2023-04-21T13:13:23.474Z,34.02
2023-04-21T13:15:51.444Z,33.59
2023-04-21T13:18:19.438Z,34.87
2023-04-21T13:20:47.256Z,34.90
2023-04-21T13:23:16.165Z,34.88
2023-04-21T13:25:45.620Z,35.27
2023-04-21T13:28:17.051Z,35.20
2023-04-21T13:30:45.768Z,34.33
2023-04-21T13:33:13.995Z,34.25
2023-04-21T13:35:41.966Z,34.46
2023-04-21T13:38:09.985Z,34.03
2023-04-21T13:40:37.938Z,34.42
2023-04-21T13:43:05.944Z,34.14
2023-04-21T13:45:33.909Z,33.98
2023-04-21T13:48:02.011Z,35.23
2023-04-21T13:50:30.064Z,35.25
2023-04-21T13:52:57.995Z,35.33
2023-04-21T13:55:25.986Z,35.09
2023-04-21T13:57:54.383Z,34.46
2023-04-21T14:00:22.586Z,34.30
2023-04-21T14:02:50.644Z,34.26
2023-04-21T14:05:18.999Z,33.46
2023-04-21T14:07:47.127Z,33.26
2023-04-21T14:10:15.095Z,33.54
2023-04-21T14:12:45.069Z,33.35
2023-04-21T14:15:13.686Z,34.04
2023-04-21T14:17:42.114Z,33.30
2023-04-21T14:20:11.007Z,33.30
2023-04-21T14:22:38.927Z,33.45
2023-04-21T14:25:07.185Z,33.26
2023-04-21T14:27:35.364Z,32.68
2023-04-21T14:30:03.542Z,33.81
2023-04-21T14:32:31.498Z,34.26
2023-04-21T14:35:00.754Z,34.10
2023-04-21T14:37:29.001Z,34.23
2023-04-21T14:39:56.976Z,34.09
2023-04-21T14:42:24.868Z,34.18
2023-04-21T14:44:52.767Z,34.00
2023-04-21T14:47:22.227Z,34.00
2023-04-21T14:49:55.144Z,33.21
2023-04-21T14:52:27.205Z,31.43
2023-04-21T14:54:55.395Z,31.69
2023-04-21T14:57:25.107Z,31.41
2023-04-21T14:59:53.564Z,31.05
2023-04-21T15:02:22.453Z,30.31
2023-04-21T15:04:51.913Z,30.81
2023-04-21T15:07:24.249Z,31.50
2023-04-21T15:09:55.412Z,31.52
2023-04-21T15:12:23.617Z,31.55
2023-04-21T15:14:51.802Z,32.40
2023-04-21T15:17:19.747Z,31.99
2023-04-21T15:19:47.683Z,31.62
2023-04-21T15:22:16.374Z,31.68
2023-04-21T15:24:45.584Z,31.40
2023-04-21T15:27:13.457Z,31.44
2023-04-21T15:29:41.457Z,31.47
2023-04-21T15:32:09.770Z,30.86
2023-04-21T15:34:37.678Z,30.67
2023-04-21T15:37:05.689Z,30.83
2023-04-21T15:39:33.676Z,29.99
2023-04-21T15:42:02.005Z,30.09
2023-04-21T15:44:30.048Z,29.84
2023-04-21T15:46:58.066Z,29.73
2023-04-21T15:49:26.407Z,28.47
2023-04-21T15:51:55.956Z,26.94
2023-04-21T15:54:24.463Z,26.11
2023-04-21T15:56:52.497Z,25.57
2023-04-21T15:59:22.408Z,24.44
2023-04-21T16:01:52.828Z,24.49
2023-04-21T16:04:21.005Z,23.81
2023-04-21T16:06:49.739Z,24.37
2023-04-21T16:09:18.269Z,23.87
2023-04-21T16:11:46.141Z,23.32
2023-04-21T16:14:16.603Z,22.48
2023-04-21T16:16:45.937Z,21.60
2023-04-21T16:19:14.070Z,21.55
2023-04-21T16:21:42.580Z,21.56
2023-04-21T16:24:11.254Z,20.34
2023-04-21T16:26:39.425Z,21.05
2023-04-21T16:29:07.316Z,21.17
2023-04-21T16:31:35.315Z,21.02
2023-04-21T16:34:03.229Z,20.84
2023-04-21T16:36:32.607Z,19.93
2023-04-21T16:39:00.746Z,19.76
2023-04-21T16:41:30.455Z,19.22
2023-04-21T16:43:58.551Z,19.59
2023-04-21T16:46:26.646Z,19.58
2023-04-21T16:48:54.813Z,19.29
2023-04-21T16:51:22.792Z,19.13
2023-04-21T16:53:51.065Z,19.06
2023-04-21T16:56:20.476Z,19.52
2023-04-21T16:58:48.450Z,19.30
2023-04-21T17:01:16.506Z,19.43
2023-04-21T17:03:44.671Z,19.49
2023-04-21T17:06:17.417Z,19.23
2023-04-21T17:08:45.490Z,19.70
2023-04-21T17:11:13.460Z,20.24
2023-04-21T17:13:41.324Z,20.43
2023-04-21T17:16:09.302Z,20.41
2023-04-21T17:18:37.311Z,20.53
2023-04-21T17:21:06.298Z,20.85
2023-04-21T17:23:34.439Z,20.95
2023-04-21T17:26:03.722Z,21.49
2023-04-21T17:28:32.265Z,21.67
2023-04-21T17:31:13.619Z,22.31
2023-04-21T17:33:43.084Z,23.12
2023-04-21T17:36:12.510Z,23.71
2023-04-21T17:38:42.929Z,24.18
2023-04-21T17:41:11.662Z,24.82
2023-04-21T17:43:39.759Z,25.22
2023-04-21T17:46:07.905Z,25.71
2023-04-21T17:48:36.008Z,26.18
2023-04-21T17:51:04.150Z,26.76
2023-04-21T17:53:32.375Z,27.37
2023-04-21T17:56:00.395Z,28.09
2023-04-21T17:58:28.749Z,28.78
2023-04-21T18:00:57.142Z,29.24
2023-04-21T18:03:25.790Z,30.25
2023-04-21T18:05:55.564Z,30.88
2023-04-21T18:08:23.702Z,31.55
2023-04-21T18:10:51.704Z,32.34
2023-04-21T18:13:19.503Z,33.17
2023-04-21T18:15:47.456Z,34.34
2023-04-21T18:18:15.414Z,35.52
2023-04-21T18:20:43.405Z,36.66
2023-04-21T18:23:11.636Z,37.53
2023-04-21T18:25:42.630Z,38.72
2023-04-21T18:28:13.011Z,39.56
2023-04-21T18:30:41.733Z,40.41
2023-04-21T18:33:11.726Z,40.88
2023-04-21T18:35:42.010Z,41.36
2023-04-21T18:38:11.898Z,41.81
2023-04-21T18:40:40.927Z,42.10
2023-04-21T18:43:10.749Z,42.93
2023-04-21T18:45:38.837Z,43.29
2023-04-21T18:48:06.789Z,43.86
2023-04-21T18:50:39.877Z,44.45
2023-04-21T18:53:09.237Z,45.23
2023-04-21T18:55:37.801Z,45.64
2023-04-21T18:58:07.619Z,46.20
2023-04-21T19:00:38.977Z,46.50
2023-04-21T19:03:08.448Z,47.04
2023-04-21T19:05:37.803Z,47.53
2023-04-21T19:08:06.066Z,48.33
2023-04-21T19:10:38.014Z,48.90
2023-04-21T19:13:06.366Z,49.72
2023-04-21T19:15:35.225Z,51.29
2023-04-21T19:18:03.180Z,50.51
2023-04-21T19:20:32.495Z,50.68
2023-04-21T19:23:00.477Z,50.76
2023-04-21T19:25:28.376Z,51.08
2023-04-21T19:27:56.424Z,51.36
2023-04-21T19:30:24.344Z,51.29
2023-04-21T19:32:52.355Z,51.69
2023-04-21T19:35:21.150Z,51.96
2023-04-21T19:37:49.708Z,52.39
2023-04-21T19:40:17.568Z,52.66
2023-04-21T19:42:45.639Z,52.89
2023-04-21T19:45:13.622Z,53.10
2023-04-21T19:47:41.541Z,53.57
2023-04-21T19:50:09.900Z,53.90
2023-04-21T19:52:37.748Z,54.29
2023-04-21T19:55:05.819Z,54.71
2023-04-21T19:57:33.793Z,55.95
2023-04-21T20:00:02.230Z,55.77
2023-04-21T20:02:40.832Z,56.06
2023-04-21T20:05:09.527Z,55.85
2023-04-21T20:07:38.273Z,56.14
2023-04-21T20:10:07.286Z,56.60
2023-04-21T20:12:35.463Z,56.97
2023-04-21T20:15:03.492Z,57.34
2023-04-21T20:17:31.921Z,57.07
2023-04-21T20:19:59.938Z,57.49
2023-04-21T20:22:27.869Z,57.66
2023-04-21T20:24:58.128Z,58.48
2023-04-21T20:27:26.980Z,59.75
2023-04-21T20:29:54.893Z,60.15
2023-04-21T20:32:22.837Z,60.74
2023-04-21T20:34:53.527Z,60.53
2023-04-21T20:37:23.251Z,60.44
2023-04-21T20:39:51.607Z,60.40
2023-04-21T20:42:20.182Z,60.80
2023-04-21T20:44:48.287Z,61.12
2023-04-21T20:47:17.636Z,61.50
2023-04-21T20:49:47.533Z,62.18
2023-04-21T20:52:16.069Z,62.88
2023-04-21T20:54:44.080Z,66.13
2023-04-21T20:57:12.316Z,64.23
2023-04-21T20:59:40.603Z,64.34
2023-04-21T21:02:08.853Z,64.30
2023-04-21T21:04:37.512Z,65.16
2023-04-21T21:07:06.373Z,65.21
2023-04-21T21:09:34.488Z,65.02
2023-04-21T21:12:02.443Z,66.88
2023-04-21T21:14:30.370Z,66.90
2023-04-21T21:16:58.586Z,67.82
2023-04-21T21:19:26.884Z,68.01
2023-04-21T21:21:54.811Z,68.59
2023-04-21T21:24:22.709Z,68.05
2023-04-21T21:26:50.972Z,68.21
2023-04-21T21:29:18.926Z,67.92
2023-04-21T21:31:46.780Z,68.75
2023-04-21T21:34:14.656Z,69.28
2023-04-21T21:36:42.868Z,69.19
2023-04-21T21:39:11.511Z,68.42
2023-04-21T21:41:39.882Z,68.73
2023-04-21T21:44:08.043Z,70.74
2023-04-21T21:46:36.504Z,70.36
2023-04-21T21:49:04.436Z,70.58
2023-04-21T21:51:32.503Z,71.10
2023-04-21T21:54:00.518Z,72.72
2023-04-21T21:56:28.624Z,72.96
2023-04-21T21:58:56.644Z,74.55
2023-04-21T22:01:24.585Z,73.31
2023-04-21T22:03:53.865Z,74.93
2023-04-21T22:06:26.803Z,73.66
2023-04-21T22:08:55.194Z,73.00
2023-04-21T22:11:23.284Z,73.48
2023-04-21T22:13:51.583Z,73.22
2023-04-21T22:16:19.474Z,74.67
2023-04-21T22:18:48.439Z,75.30
2023-04-21T22:21:16.514Z,75.79
2023-04-21T22:23:44.433Z,74.51
2023-04-21T22:26:12.332Z,75.01
2023-04-21T22:28:41.942Z,75.59
2023-04-21T22:31:10.625Z,75.92
2023-04-21T22:33:38.606Z,74.77
2023-04-21T22:36:08.524Z,74.83
2023-04-21T22:38:38.593Z,76.05
2023-04-21T22:41:06.797Z,76.37
2023-04-21T22:43:34.927Z,77.32
2023-04-21T22:46:02.962Z,76.82
2023-04-21T22:48:32.833Z,77.07
2023-04-21T22:51:01.808Z,76.53
2023-04-21T22:53:29.864Z,77.39
2023-04-21T22:55:57.849Z,78.27
2023-04-21T22:58:26.504Z,77.99
2023-04-21T23:00:54.511Z,77.32
2023-04-21T23:03:23.732Z,77.17
2023-04-21T23:05:51.900Z,77.49
2023-04-21T23:08:19.754Z,78.52
2023-04-21T23:10:47.717Z,79.45
2023-04-21T23:13:15.658Z,84.55
2023-04-21T23:15:43.489Z,86.11
2023-04-21T23:18:11.470Z,86.88
2023-04-21T23:20:39.496Z,85.04
2023-04-21T23:23:07.446Z,82.98
2023-04-21T23:25:36.266Z,82.93
2023-04-21T23:28:04.116Z,82.38
2023-04-21T23:30:32.099Z,82.01
2023-04-21T23:33:00.163Z,81.65
2023-04-21T23:35:28.267Z,81.12
2023-04-21T23:37:56.252Z,81.34
2023-04-21T23:40:24.278Z,81.49
2023-04-21T23:42:52.135Z,81.78
2023-04-21T23:45:20.095Z,82.02
2023-04-21T23:47:48.096Z,83.25
2023-04-21T23:50:15.954Z,83.76
2023-04-21T23:52:44.843Z,83.10
2023-04-21T23:55:12.806Z,83.61
2023-04-21T23:57:40.746Z,83.50
